sensor_id;sensor_type;location;lat;lon;timestamp;temperature;humidity
11489;DHT22;5801;50.804;12.638;2023-09-30T00:04:38;17.80;99.90
11489;DHT22;5801;50.804;12.638;2023-09-30T00:09:31;17.90;99.90
11489;DHT22;5801;50.804;12.638;2023-09-30T00:14:23;17.90;99.90
11489;DHT22;5801;50.804;12.638;2023-09-30T00:16:49;17.00;99.90
11489;DHT22;5801;50.804;12.638;2023-09-30T00:19:16;17.40;99.90
11489;DHT22;5801;50.804;12.638;2023-09-30T00:26:34;17.30;99.90
11489;DHT22;5801;50.804;12.638;2023-09-30T00:36:23;17.00;99.90
11489;DHT22;5801;50.804;12.638;2023-09-30T00:46:29;16.40;45.20
11489;DHT22;5801;50.804;12.638;2023-09-30T00:48:58;16.20;99.90
11489;DHT22;5801;50.804;12.638;2023-09-30T00:51:26;16.20;79.90
11489;DHT22;5801;50.804;12.638;2023-09-30T00:53:53;16.10;99.90
11489;DHT22;5801;50.804;12.638;2023-09-30T00:56:22;16.20;99.90
11489;DHT22;5801;50.804;12.638;2023-09-30T00:58:49;15.90;99.90
11489;DHT22;5801;50.804;12.638;2023-09-30T01:01:19;15.90;99.90
11489;DHT22;5801;50.804;12.638;2023-09-30T01:03:46;15.90;99.90
11489;DHT22;5801;50.804;12.638;2023-09-30T01:06:12;15.60;99.90
11489;DHT22;5801;50.804;12.638;2023-09-30T01:08:39;15.60;99.90
11489;DHT22;5801;50.804;12.638;2023-09-30T01:11:05;15.80;99.90
11489;DHT22;5801;50.804;12.638;2023-09-30T01:13:35;15.80;1.00
11489;DHT22;5801;50.804;12.638;2023-09-30T01:16:09;15.80;1.00
11489;DHT22;5801;50.804;12.638;2023-09-30T01:18:35;15.60;1.00
11489;DHT22;5801;50.804;12.638;2023-09-30T01:21:05;16.10;1.00
11489;DHT22;5801;50.804;12.638;2023-09-30T01:23:32;15.60;1.00
11489;DHT22;5801;50.804;12.638;2023-09-30T01:26:18;15.50;99.90
11489;DHT22;5801;50.804;12.638;2023-09-30T01:36:03;15.40;99.90
11489;DHT22;5801;50.804;12.638;2023-09-30T01:55:33;17.90;99.90
11489;DHT22;5801;50.804;12.638;2023-09-30T02:00:25;15.10;1.00
11489;DHT22;5801;50.804;12.638;2023-09-30T02:02:54;14.70;99.90
11489;DHT22;5801;50.804;12.638;2023-09-30T02:10:15;14.70;99.90
11489;DHT22;5801;50.804;12.638;2023-09-30T02:15:07;14.90;99.90
11489;DHT22;5801;50.804;12.638;2023-09-30T02:27:20;14.80;99.90
11489;DHT22;5801;50.804;12.638;2023-09-30T02:32:12;14.70;99.90
11489;DHT22;5801;50.804;12.638;2023-09-30T02:34:39;15.00;99.90
11489;DHT22;5801;50.804;12.638;2023-09-30T02:41:58;15.20;99.90
11489;DHT22;5801;50.804;12.638;2023-09-30T02:44:23;15.20;99.90
11489;DHT22;5801;50.804;12.638;2023-09-30T02:46:49;15.10;99.90
11489;DHT22;5801;50.804;12.638;2023-09-30T03:06:19;14.70;99.90
11489;DHT22;5801;50.804;12.638;2023-09-30T03:08:45;14.40;99.90
11489;DHT22;5801;50.804;12.638;2023-09-30T03:11:10;14.80;99.90
11489;DHT22;5801;50.804;12.638;2023-09-30T03:16:03;14.40;99.90
11489;DHT22;5801;50.804;12.638;2023-09-30T03:18:29;14.60;99.90
11489;DHT22;5801;50.804;12.638;2023-09-30T03:20:59;14.20;99.90
11489;DHT22;5801;50.804;12.638;2023-09-30T03:25:59;14.70;99.90
11489;DHT22;5801;50.804;12.638;2023-09-30T03:28:25;14.50;99.90
11489;DHT22;5801;50.804;12.638;2023-09-30T03:30:52;14.30;99.90
11489;DHT22;5801;50.804;12.638;2023-09-30T03:33:18;14.10;99.90
11489;DHT22;5801;50.804;12.638;2023-09-30T03:35:43;14.00;99.90
11489;DHT22;5801;50.804;12.638;2023-09-30T03:38:10;14.40;99.90
11489;DHT22;5801;50.804;12.638;2023-09-30T03:43:13;14.30;1.00
11489;DHT22;5801;50.804;12.638;2023-09-30T03:55:35;14.40;1.00
11489;DHT22;5801;50.804;12.638;2023-09-30T04:05:25;14.20;99.90
11489;DHT22;5801;50.804;12.638;2023-09-30T04:07:58;14.30;99.90
11489;DHT22;5801;50.804;12.638;2023-09-30T04:10:24;14.30;99.90
11489;DHT22;5801;50.804;12.638;2023-09-30T04:15:18;14.70;99.90
11489;DHT22;5801;50.804;12.638;2023-09-30T04:17:44;13.80;99.90
11489;DHT22;5801;50.804;12.638;2023-09-30T04:20:09;13.90;1.00
11489;DHT22;5801;50.804;12.638;2023-09-30T04:32:37;13.90;99.90
11489;DHT22;5801;50.804;12.638;2023-09-30T04:35:07;13.90;99.90
11489;DHT22;5801;50.804;12.638;2023-09-30T04:37:34;14.20;99.90
11489;DHT22;5801;50.804;12.638;2023-09-30T04:40:01;13.70;99.90
11489;DHT22;5801;50.804;12.638;2023-09-30T04:42:34;13.50;99.90
11489;DHT22;5801;50.804;12.638;2023-09-30T04:45:03;13.70;99.90
11489;DHT22;5801;50.804;12.638;2023-09-30T05:02:12;13.60;1.00
11489;DHT22;5801;50.804;12.638;2023-09-30T05:04:41;13.40;99.90
11489;DHT22;5801;50.804;12.638;2023-09-30T05:19:22;13.40;99.90
11489;DHT22;5801;50.804;12.638;2023-09-30T05:45:55;13.10;99.90
11489;DHT22;5801;50.804;12.638;2023-09-30T05:48:21;12.60;99.90
11489;DHT22;5801;50.804;12.638;2023-09-30T05:53:13;13.40;99.90
11489;DHT22;5801;50.804;12.638;2023-09-30T05:58:17;13.20;99.90
11489;DHT22;5801;50.804;12.638;2023-09-30T06:00:43;13.10;99.90
11489;DHT22;5801;50.804;12.638;2023-09-30T06:05:41;13.10;99.90
11489;DHT22;5801;50.804;12.638;2023-09-30T06:08:09;13.10;99.90
11489;DHT22;5801;50.804;12.638;2023-09-30T06:10:40;13.00;99.90
11489;DHT22;5801;50.804;12.638;2023-09-30T06:13:08;13.10;99.90
11489;DHT22;5801;50.804;12.638;2023-09-30T06:15:41;13.30;99.90
11489;DHT22;5801;50.804;12.638;2023-09-30T06:18:09;13.30;99.90
11489;DHT22;5801;50.804;12.638;2023-09-30T06:20:35;12.90;99.90
11489;DHT22;5801;50.804;12.638;2023-09-30T06:25:28;14.00;99.90
11489;DHT22;5801;50.804;12.638;2023-09-30T06:35:21;14.20;99.90
11489;DHT22;5801;50.804;12.638;2023-09-30T06:40:13;14.30;99.90
11489;DHT22;5801;50.804;12.638;2023-09-30T06:45:06;15.00;56.60
11489;DHT22;5801;50.804;12.638;2023-09-30T06:47:33;18.10;75.20
11489;DHT22;5801;50.804;12.638;2023-09-30T06:50:03;15.10;28.80
11489;DHT22;5801;50.804;12.638;2023-09-30T06:52:41;15.40;54.80
11489;DHT22;5801;50.804;12.638;2023-09-30T06:55:08;15.20;99.90
11489;DHT22;5801;50.804;12.638;2023-09-30T06:57:38;14.80;60.30
11489;DHT22;5801;50.804;12.638;2023-09-30T07:00:10;14.90;99.90
11489;DHT22;5801;50.804;12.638;2023-09-30T07:02:38;15.10;25.70
11489;DHT22;5801;50.804;12.638;2023-09-30T07:05:09;15.00;25.30
11489;DHT22;5801;50.804;12.638;2023-09-30T07:07:36;14.80;98.10
11489;DHT22;5801;50.804;12.638;2023-09-30T07:12:29;14.80;99.90
11489;DHT22;5801;50.804;12.638;2023-09-30T07:14:57;15.30;99.90
11489;DHT22;5801;50.804;12.638;2023-09-30T07:17:23;15.30;99.90
11489;DHT22;5801;50.804;12.638;2023-09-30T07:19:49;15.10;80.70
11489;DHT22;5801;50.804;12.638;2023-09-30T07:22:15;15.20;99.90
11489;DHT22;5801;50.804;12.638;2023-09-30T07:24:42;15.00;99.90
11489;DHT22;5801;50.804;12.638;2023-09-30T07:27:07;15.20;99.90
11489;DHT22;5801;50.804;12.638;2023-09-30T07:29:33;15.10;99.90
11489;DHT22;5801;50.804;12.638;2023-09-30T07:46:36;14.30;99.90
11489;DHT22;5801;50.804;12.638;2023-09-30T07:53:55;15.00;45.20
11489;DHT22;5801;50.804;12.638;2023-09-30T08:01:15;15.20;99.90
11489;DHT22;5801;50.804;12.638;2023-09-30T08:06:07;14.70;58.20
11489;DHT22;5801;50.804;12.638;2023-09-30T08:08:36;14.80;57.00
11489;DHT22;5801;50.804;12.638;2023-09-30T08:11:02;14.90;35.30
11489;DHT22;5801;50.804;12.638;2023-09-30T08:13:28;14.60;36.60
11489;DHT22;5801;50.804;12.638;2023-09-30T08:18:22;14.70;26.70
11489;DHT22;5801;50.804;12.638;2023-09-30T08:20:48;15.20;20.10
11489;DHT22;5801;50.804;12.638;2023-09-30T08:25:40;15.30;18.80
11489;DHT22;5801;50.804;12.638;2023-09-30T08:28:06;15.30;19.50
11489;DHT22;5801;50.804;12.638;2023-09-30T08:30:36;15.50;13.90
11489;DHT22;5801;50.804;12.638;2023-09-30T08:33:02;15.80;5.90
11489;DHT22;5801;50.804;12.638;2023-09-30T08:35:35;16.10;1.00
11489;DHT22;5801;50.804;12.638;2023-09-30T08:38:02;16.50;1.00
11489;DHT22;5801;50.804;12.638;2023-09-30T08:40:29;16.50;1.00
11489;DHT22;5801;50.804;12.638;2023-09-30T08:42:55;17.00;1.00
11489;DHT22;5801;50.804;12.638;2023-09-30T08:45:21;17.00;1.00
11489;DHT22;5801;50.804;12.638;2023-09-30T08:52:41;17.60;1.00
11489;DHT22;5801;50.804;12.638;2023-09-30T08:55:09;17.50;1.00
11489;DHT22;5801;50.804;12.638;2023-09-30T08:57:41;17.20;1.00
11489;DHT22;5801;50.804;12.638;2023-09-30T09:00:09;17.60;1.00
11489;DHT22;5801;50.804;12.638;2023-09-30T09:02:37;17.40;1.00
11489;DHT22;5801;50.804;12.638;2023-09-30T09:05:04;17.40;1.00
11489;DHT22;5801;50.804;12.638;2023-09-30T09:10:11;17.70;1.00
11489;DHT22;5801;50.804;12.638;2023-09-30T09:12:41;18.00;1.00
11489;DHT22;5801;50.804;12.638;2023-09-30T09:15:08;18.40;1.00
11489;DHT22;5801;50.804;12.638;2023-09-30T09:20:21;19.20;1.00
11489;DHT22;5801;50.804;12.638;2023-09-30T09:22:51;19.20;1.00
11489;DHT22;5801;50.804;12.638;2023-09-30T09:25:19;19.10;1.00
11489;DHT22;5801;50.804;12.638;2023-09-30T09:27:48;18.90;1.00
11489;DHT22;5801;50.804;12.638;2023-09-30T09:30:19;18.70;1.00
11489;DHT22;5801;50.804;12.638;2023-09-30T09:32:53;18.40;1.00
11489;DHT22;5801;50.804;12.638;2023-09-30T09:35:30;18.70;1.00
11489;DHT22;5801;50.804;12.638;2023-09-30T09:38:05;19.10;1.00
11489;DHT22;5801;50.804;12.638;2023-09-30T09:40:36;19.70;1.00
11489;DHT22;5801;50.804;12.638;2023-09-30T09:43:06;20.30;1.00
11489;DHT22;5801;50.804;12.638;2023-09-30T09:45:36;20.90;1.00
11489;DHT22;5801;50.804;12.638;2023-09-30T09:48:06;21.90;1.00
11489;DHT22;5801;50.804;12.638;2023-09-30T09:50:32;22.40;1.00
11489;DHT22;5801;50.804;12.638;2023-09-30T09:52:58;22.50;1.00
11489;DHT22;5801;50.804;12.638;2023-09-30T09:55:26;22.20;1.00
11489;DHT22;5801;50.804;12.638;2023-09-30T10:00:22;22.00;1.00
11489;DHT22;5801;50.804;12.638;2023-09-30T10:02:50;22.20;1.00
11489;DHT22;5801;50.804;12.638;2023-09-30T10:05:18;22.30;1.00
11489;DHT22;5801;50.804;12.638;2023-09-30T10:08:07;22.70;1.00
11489;DHT22;5801;50.804;12.638;2023-09-30T10:10:37;23.30;1.00
11489;DHT22;5801;50.804;12.638;2023-09-30T10:13:04;24.00;1.00
11489;DHT22;5801;50.804;12.638;2023-09-30T10:15:35;24.00;1.00
11489;DHT22;5801;50.804;12.638;2023-09-30T10:18:12;24.40;1.00
11489;DHT22;5801;50.804;12.638;2023-09-30T10:20:38;24.40;1.00
11489;DHT22;5801;50.804;12.638;2023-09-30T10:23:20;24.90;1.00
11489;DHT22;5801;50.804;12.638;2023-09-30T10:25:48;23.80;1.00
11489;DHT22;5801;50.804;12.638;2023-09-30T10:28:33;24.30;1.00
11489;DHT22;5801;50.804;12.638;2023-09-30T10:31:19;24.60;1.00
11489;DHT22;5801;50.804;12.638;2023-09-30T10:36:35;25.30;1.00
11489;DHT22;5801;50.804;12.638;2023-09-30T10:39:04;25.80;1.00
11489;DHT22;5801;50.804;12.638;2023-09-30T10:46:52;26.70;1.00
11489;DHT22;5801;50.804;12.638;2023-09-30T10:51:53;26.80;1.00
11489;DHT22;5801;50.804;12.638;2023-09-30T10:54:31;26.80;1.00
11489;DHT22;5801;50.804;12.638;2023-09-30T10:56:58;26.10;1.00
11489;DHT22;5801;50.804;12.638;2023-09-30T10:59:26;25.70;1.00
11489;DHT22;5801;50.804;12.638;2023-09-30T11:01:53;25.50;1.00
11489;DHT22;5801;50.804;12.638;2023-09-30T11:04:19;25.20;1.00
11489;DHT22;5801;50.804;12.638;2023-09-30T11:06:46;25.00;1.00
11489;DHT22;5801;50.804;12.638;2023-09-30T11:09:22;25.00;1.00
11489;DHT22;5801;50.804;12.638;2023-09-30T11:11:50;25.60;1.00
11489;DHT22;5801;50.804;12.638;2023-09-30T11:14:21;25.20;1.00
11489;DHT22;5801;50.804;12.638;2023-09-30T11:16:49;25.10;1.00
11489;DHT22;5801;50.804;12.638;2023-09-30T11:19:16;25.00;1.00
11489;DHT22;5801;50.804;12.638;2023-09-30T11:21:43;24.90;1.00
11489;DHT22;5801;50.804;12.638;2023-09-30T11:24:14;25.00;1.00
11489;DHT22;5801;50.804;12.638;2023-09-30T11:26:40;25.20;1.00
11489;DHT22;5801;50.804;12.638;2023-09-30T11:29:15;25.60;1.00
11489;DHT22;5801;50.804;12.638;2023-09-30T11:31:44;25.70;1.00
11489;DHT22;5801;50.804;12.638;2023-09-30T11:34:15;25.30;1.00
11489;DHT22;5801;50.804;12.638;2023-09-30T11:36:48;25.20;1.00
11489;DHT22;5801;50.804;12.638;2023-09-30T11:39:25;24.70;1.00
11489;DHT22;5801;50.804;12.638;2023-09-30T11:41:52;24.80;1.00
11489;DHT22;5801;50.804;12.638;2023-09-30T11:44:18;25.60;1.00
11489;DHT22;5801;50.804;12.638;2023-09-30T11:51:58;27.20;1.00
11489;DHT22;5801;50.804;12.638;2023-09-30T11:54:37;27.30;1.00
11489;DHT22;5801;50.804;12.638;2023-09-30T11:57:04;27.30;1.00
11489;DHT22;5801;50.804;12.638;2023-09-30T11:59:31;27.90;1.00
11489;DHT22;5801;50.804;12.638;2023-09-30T12:01:57;27.50;1.00
11489;DHT22;5801;50.804;12.638;2023-09-30T12:04:24;27.50;1.00
11489;DHT22;5801;50.804;12.638;2023-09-30T12:06:50;27.60;1.00
11489;DHT22;5801;50.804;12.638;2023-09-30T12:09:17;27.30;1.00
11489;DHT22;5801;50.804;12.638;2023-09-30T12:11:53;26.10;1.00
11489;DHT22;5801;50.804;12.638;2023-09-30T12:14:20;24.90;1.00
11489;DHT22;5801;50.804;12.638;2023-09-30T12:16:46;23.60;1.00
11489;DHT22;5801;50.804;12.638;2023-09-30T12:19:19;21.20;1.00
11489;DHT22;5801;50.804;12.638;2023-09-30T12:21:46;20.70;1.00
11489;DHT22;5801;50.804;12.638;2023-09-30T12:24:14;20.30;1.00
11489;DHT22;5801;50.804;12.638;2023-09-30T12:26:49;20.10;1.00
11489;DHT22;5801;50.804;12.638;2023-09-30T12:29:17;20.00;1.00
11489;DHT22;5801;50.804;12.638;2023-09-30T12:31:48;19.80;1.00
11489;DHT22;5801;50.804;12.638;2023-09-30T12:34:16;19.50;1.00
11489;DHT22;5801;50.804;12.638;2023-09-30T12:36:42;19.40;1.00
11489;DHT22;5801;50.804;12.638;2023-09-30T12:39:09;19.20;1.00
11489;DHT22;5801;50.804;12.638;2023-09-30T12:41:42;19.00;1.00
11489;DHT22;5801;50.804;12.638;2023-09-30T12:44:08;18.80;1.00
11489;DHT22;5801;50.804;12.638;2023-09-30T12:46:35;18.80;1.00
11489;DHT22;5801;50.804;12.638;2023-09-30T12:49:02;18.90;1.00
11489;DHT22;5801;50.804;12.638;2023-09-30T13:01:16;18.70;1.00
11489;DHT22;5801;50.804;12.638;2023-09-30T13:03:44;18.70;1.00
11489;DHT22;5801;50.804;12.638;2023-09-30T13:08:36;18.60;1.00
11489;DHT22;5801;50.804;12.638;2023-09-30T13:11:03;18.50;1.00
11489;DHT22;5801;50.804;12.638;2023-09-30T13:13:32;18.40;1.00
11489;DHT22;5801;50.804;12.638;2023-09-30T13:16:05;18.30;1.00
11489;DHT22;5801;50.804;12.638;2023-09-30T13:21:00;17.80;1.00
11489;DHT22;5801;50.804;12.638;2023-09-30T13:23:25;17.70;1.00
11489;DHT22;5801;50.804;12.638;2023-09-30T13:25:52;17.70;1.00
11489;DHT22;5801;50.804;12.638;2023-09-30T13:28:18;17.90;1.00
11489;DHT22;5801;50.804;12.638;2023-09-30T13:30:44;18.00;1.00
11489;DHT22;5801;50.804;12.638;2023-09-30T13:38:03;18.30;1.00
11489;DHT22;5801;50.804;12.638;2023-09-30T13:40:29;18.30;1.00
11489;DHT22;5801;50.804;12.638;2023-09-30T13:42:55;18.30;1.00
11489;DHT22;5801;50.804;12.638;2023-09-30T13:47:48;18.20;1.00
11489;DHT22;5801;50.804;12.638;2023-09-30T13:50:14;18.00;1.00
11489;DHT22;5801;50.804;12.638;2023-09-30T13:52:40;18.00;1.00
11489;DHT22;5801;50.804;12.638;2023-09-30T14:19:34;18.30;1.00
11489;DHT22;5801;50.804;12.638;2023-09-30T14:22:00;18.30;1.00
11489;DHT22;5801;50.804;12.638;2023-09-30T14:24:26;18.30;1.00
11489;DHT22;5801;50.804;12.638;2023-09-30T14:41:30;18.10;1.00
11489;DHT22;5801;50.804;12.638;2023-09-30T14:48:48;18.10;1.00
11489;DHT22;5801;50.804;12.638;2023-09-30T14:56:17;18.00;1.00
11489;DHT22;5801;50.804;12.638;2023-09-30T14:58:43;18.00;1.00
11489;DHT22;5801;50.804;12.638;2023-09-30T15:01:10;17.90;1.00
11489;DHT22;5801;50.804;12.638;2023-09-30T15:03:36;17.90;1.00
11489;DHT22;5801;50.804;12.638;2023-09-30T15:08:31;17.80;1.00
11489;DHT22;5801;50.804;12.638;2023-09-30T15:11:01;17.80;1.00
11489;DHT22;5801;50.804;12.638;2023-09-30T15:13:28;17.80;1.00
11489;DHT22;5801;50.804;12.638;2023-09-30T15:20:49;17.70;1.00
11489;DHT22;5801;50.804;12.638;2023-09-30T15:23:15;17.60;1.00
11489;DHT22;5801;50.804;12.638;2023-09-30T15:25:42;17.50;1.00
11489;DHT22;5801;50.804;12.638;2023-09-30T15:28:08;17.60;1.00
11489;DHT22;5801;50.804;12.638;2023-09-30T15:33:01;17.50;1.00
11489;DHT22;5801;50.804;12.638;2023-09-30T15:35:27;17.50;1.00
11489;DHT22;5801;50.804;12.638;2023-09-30T15:37:53;17.50;1.00
11489;DHT22;5801;50.804;12.638;2023-09-30T15:42:45;17.40;1.00
11489;DHT22;5801;50.804;12.638;2023-09-30T15:47:38;17.30;1.00
11489;DHT22;5801;50.804;12.638;2023-09-30T15:50:04;17.40;1.00
11489;DHT22;5801;50.804;12.638;2023-09-30T15:52:31;17.40;1.00
11489;DHT22;5801;50.804;12.638;2023-09-30T15:54:57;17.30;1.00
11489;DHT22;5801;50.804;12.638;2023-09-30T15:57:23;17.30;1.00
11489;DHT22;5801;50.804;12.638;2023-09-30T15:59:49;17.20;1.00
11489;DHT22;5801;50.804;12.638;2023-09-30T16:04:41;17.10;1.00
11489;DHT22;5801;50.804;12.638;2023-09-30T16:09:34;17.00;1.00
11489;DHT22;5801;50.804;12.638;2023-09-30T16:12:00;16.80;1.00
11489;DHT22;5801;50.804;12.638;2023-09-30T16:14:27;16.80;1.00
11489;DHT22;5801;50.804;12.638;2023-09-30T16:16:53;16.80;1.00
11489;DHT22;5801;50.804;12.638;2023-09-30T16:19:20;16.70;1.00
11489;DHT22;5801;50.804;12.638;2023-09-30T16:24:12;16.60;1.00
11489;DHT22;5801;50.804;12.638;2023-09-30T16:26:39;16.50;1.00
11489;DHT22;5801;50.804;12.638;2023-09-30T16:29:06;16.40;1.00
11489;DHT22;5801;50.804;12.638;2023-09-30T16:33:58;16.30;1.00
11489;DHT22;5801;50.804;12.638;2023-09-30T16:41:17;15.90;1.00
11489;DHT22;5801;50.804;12.638;2023-09-30T16:56:02;15.00;1.00
11489;DHT22;5801;50.804;12.638;2023-09-30T16:58:28;14.90;1.00
11489;DHT22;5801;50.804;12.638;2023-09-30T17:03:20;14.60;1.00
11489;DHT22;5801;50.804;12.638;2023-09-30T17:10:39;14.20;1.00
11489;DHT22;5801;50.804;12.638;2023-09-30T17:17:59;13.80;1.00
11489;DHT22;5801;50.804;12.638;2023-09-30T17:22:51;13.50;1.00
11489;DHT22;5801;50.804;12.638;2023-09-30T17:32:35;13.20;1.00
11489;DHT22;5801;50.804;12.638;2023-09-30T17:35:02;13.10;1.00
11489;DHT22;5801;50.804;12.638;2023-09-30T17:37:28;13.10;1.00
11489;DHT22;5801;50.804;12.638;2023-09-30T17:52:06;12.70;1.00
11489;DHT22;5801;50.804;12.638;2023-09-30T17:56:59;12.50;1.00
11489;DHT22;5801;50.804;12.638;2023-09-30T17:59:24;12.30;1.00
11489;DHT22;5801;50.804;12.638;2023-09-30T18:11:36;12.10;1.00
11489;DHT22;5801;50.804;12.638;2023-09-30T18:14:01;12.10;1.00
11489;DHT22;5801;50.804;12.638;2023-09-30T18:33:30;11.70;1.40
11489;DHT22;5801;50.804;12.638;2023-09-30T18:38:24;11.60;5.70
11489;DHT22;5801;50.804;12.638;2023-09-30T18:40:49;11.50;6.80
11489;DHT22;5801;50.804;12.638;2023-09-30T18:43:15;11.50;7.40
11489;DHT22;5801;50.804;12.638;2023-09-30T18:45:42;11.50;7.70
11489;DHT22;5801;50.804;12.638;2023-09-30T18:50:49;11.30;11.60
11489;DHT22;5801;50.804;12.638;2023-09-30T18:55:43;11.10;15.20
11489;DHT22;5801;50.804;12.638;2023-09-30T19:00:40;11.00;20.40
11489;DHT22;5801;50.804;12.638;2023-09-30T19:03:08;11.00;20.80
11489;DHT22;5801;50.804;12.638;2023-09-30T19:05:35;10.90;21.70
11489;DHT22;5801;50.804;12.638;2023-09-30T19:15:26;10.70;29.90
11489;DHT22;5801;50.804;12.638;2023-09-30T19:22:46;10.70;27.60
11489;DHT22;5801;50.804;12.638;2023-09-30T19:25:12;10.70;28.00
11489;DHT22;5801;50.804;12.638;2023-09-30T19:27:38;10.70;27.50
11489;DHT22;5801;50.804;12.638;2023-09-30T19:30:05;10.70;29.30
11489;DHT22;5801;50.804;12.638;2023-09-30T19:32:35;10.80;32.40
11489;DHT22;5801;50.804;12.638;2023-09-30T19:37:28;10.70;32.10
11489;DHT22;5801;50.804;12.638;2023-09-30T19:39:54;10.70;36.00
11489;DHT22;5801;50.804;12.638;2023-09-30T19:44:46;10.70;35.20
11489;DHT22;5801;50.804;12.638;2023-09-30T19:47:14;10.60;32.70
11489;DHT22;5801;50.804;12.638;2023-09-30T19:49:40;10.60;34.80
11489;DHT22;5801;50.804;12.638;2023-09-30T20:01:57;10.50;45.80
11489;DHT22;5801;50.804;12.638;2023-09-30T20:04:23;10.40;49.00
11489;DHT22;5801;50.804;12.638;2023-09-30T20:09:16;10.40;58.80
11489;DHT22;5801;50.804;12.638;2023-09-30T20:11:42;10.40;59.50
11489;DHT22;5801;50.804;12.638;2023-09-30T20:14:08;10.40;62.70
11489;DHT22;5801;50.804;12.638;2023-09-30T20:26:21;10.20;81.00
11489;DHT22;5801;50.804;12.638;2023-09-30T20:28:51;10.20;80.00
11489;DHT22;5801;50.804;12.638;2023-09-30T20:33:44;10.20;69.30
11489;DHT22;5801;50.804;12.638;2023-09-30T20:36:11;10.10;70.30
11489;DHT22;5801;50.804;12.638;2023-09-30T20:38:37;10.10;70.90
11489;DHT22;5801;50.804;12.638;2023-09-30T20:41:07;10.10;74.50
11489;DHT22;5801;50.804;12.638;2023-09-30T20:43:39;10.00;81.80
11489;DHT22;5801;50.804;12.638;2023-09-30T20:48:32;10.00;80.30
11489;DHT22;5801;50.804;12.638;2023-09-30T20:51:03;10.00;82.80
11489;DHT22;5801;50.804;12.638;2023-09-30T20:53:29;10.00;91.10
11489;DHT22;5801;50.804;12.638;2023-09-30T20:58:24;9.80;93.30
11489;DHT22;5801;50.804;12.638;2023-09-30T21:03:16;9.80;93.40
11489;DHT22;5801;50.804;12.638;2023-09-30T21:08:09;9.80;94.60
11489;DHT22;5801;50.804;12.638;2023-09-30T21:17:59;9.60;99.90
11489;DHT22;5801;50.804;12.638;2023-09-30T21:20:25;9.60;99.90
11489;DHT22;5801;50.804;12.638;2023-09-30T21:22:51;9.50;99.90
11489;DHT22;5801;50.804;12.638;2023-09-30T21:35:01;9.50;99.90
11489;DHT22;5801;50.804;12.638;2023-09-30T22:04:17;9.20;99.90
11489;DHT22;5801;50.804;12.638;2023-09-30T22:06:44;9.30;99.90
11489;DHT22;5801;50.804;12.638;2023-09-30T22:11:36;9.20;99.90
11489;DHT22;5801;50.804;12.638;2023-09-30T22:14:01;9.20;99.90
11489;DHT22;5801;50.804;12.638;2023-09-30T22:16:33;9.30;99.90
11489;DHT22;5801;50.804;12.638;2023-09-30T22:18:59;9.10;99.90
11489;DHT22;5801;50.804;12.638;2023-09-30T22:23:51;9.10;99.90
11489;DHT22;5801;50.804;12.638;2023-09-30T22:28:43;9.10;99.90
11489;DHT22;5801;50.804;12.638;2023-09-30T22:31:09;9.20;99.90
11489;DHT22;5801;50.804;12.638;2023-09-30T22:33:35;9.20;99.90
11489;DHT22;5801;50.804;12.638;2023-09-30T22:36:01;9.20;99.90
11489;DHT22;5801;50.804;12.638;2023-09-30T22:40:53;9.20;99.90
11489;DHT22;5801;50.804;12.638;2023-09-30T22:43:19;9.30;99.90
11489;DHT22;5801;50.804;12.638;2023-09-30T22:45:50;9.30;99.90
11489;DHT22;5801;50.804;12.638;2023-09-30T22:50:41;9.30;99.90
11489;DHT22;5801;50.804;12.638;2023-09-30T22:58:00;9.30;99.90
11489;DHT22;5801;50.804;12.638;2023-09-30T23:00:26;9.30;99.90
11489;DHT22;5801;50.804;12.638;2023-09-30T23:02:56;9.40;99.90
11489;DHT22;5801;50.804;12.638;2023-09-30T23:07:50;9.40;99.90
11489;DHT22;5801;50.804;12.638;2023-09-30T23:10:16;9.40;99.90
11489;DHT22;5801;50.804;12.638;2023-09-30T23:15:10;9.30;99.90
11489;DHT22;5801;50.804;12.638;2023-09-30T23:17:40;9.30;99.90
11489;DHT22;5801;50.804;12.638;2023-09-30T23:20:10;9.30;99.90
11489;DHT22;5801;50.804;12.638;2023-09-30T23:22:39;9.30;99.90
11489;DHT22;5801;50.804;12.638;2023-09-30T23:27:42;9.30;99.90
11489;DHT22;5801;50.804;12.638;2023-09-30T23:32:43;9.30;99.90
11489;DHT22;5801;50.804;12.638;2023-09-30T23:35:11;9.30;99.90
11489;DHT22;5801;50.804;12.638;2023-09-30T23:37:41;9.20;99.90
11489;DHT22;5801;50.804;12.638;2023-09-30T23:42:34;9.10;99.90
11489;DHT22;5801;50.804;12.638;2023-09-30T23:45:06;9.10;99.90
11489;DHT22;5801;50.804;12.638;2023-09-30T23:47:42;9.10;99.90
11489;DHT22;5801;50.804;12.638;2023-09-30T23:50:11;9.10;99.90
11489;DHT22;5801;50.804;12.638;2023-09-30T23:52:47;9.10;99.90
11489;DHT22;5801;50.804;12.638;2023-09-30T23:55:17;9.00;99.90
11489;DHT22;5801;50.804;12.638;2023-09-30T23:57:47;9.00;99.90
